地図

経路データ

SID SEASON NUMBER BASIN SUBBASIN NAME ISO_TIME NATURE LAT LON WMO_WIND WMO_PRES WMO_AGENCY TRACK_TYPE DIST2LAND LANDFALL IFLAG USA_AGENCY USA_ATCF_ID USA_LAT USA_LON USA_RECORD USA_STATUS USA_WIND USA_PRES USA_SSHS USA_R34_NE USA_R34_SE USA_R34_SW USA_R34_NW USA_R50_NE USA_R50_SE USA_R50_SW USA_R50_NW USA_R64_NE USA_R64_SE USA_R64_SW USA_R64_NW USA_POCI USA_ROCI USA_RMW USA_EYE TOKYO_LAT TOKYO_LON TOKYO_GRADE TOKYO_WIND TOKYO_PRES TOKYO_R50_DIR TOKYO_R50_LONG TOKYO_R50_SHORT TOKYO_R30_DIR TOKYO_R30_LONG TOKYO_R30_SHORT TOKYO_LAND CMA_LAT CMA_LON CMA_CAT CMA_WIND CMA_PRES HKO_LAT HKO_LON HKO_CAT HKO_WIND HKO_PRES NEWDELHI_LAT NEWDELHI_LON NEWDELHI_GRADE NEWDELHI_WIND NEWDELHI_PRES NEWDELHI_CI NEWDELHI_DP NEWDELHI_POCI REUNION_LAT REUNION_LON REUNION_TYPE REUNION_WIND REUNION_PRES REUNION_TNUM REUNION_CI REUNION_RMW REUNION_R34_NE REUNION_R34_SE REUNION_R34_SW REUNION_R34_NW REUNION_R50_NE REUNION_R50_SE REUNION_R50_SW REUNION_R50_NW REUNION_R64_NE REUNION_R64_SE REUNION_R64_SW REUNION_R64_NW BOM_LAT BOM_LON BOM_TYPE BOM_WIND BOM_PRES BOM_TNUM BOM_CI BOM_RMW BOM_R34_NE BOM_R34_SE BOM_R34_SW BOM_R34_NW BOM_R50_NE BOM_R50_SE BOM_R50_SW BOM_R50_NW BOM_R64_NE BOM_R64_SE BOM_R64_SW BOM_R64_NW BOM_ROCI BOM_POCI BOM_EYE BOM_POS_METHOD BOM_PRES_METHOD NADI_LAT NADI_LON NADI_CAT NADI_WIND NADI_PRES WELLINGTON_LAT WELLINGTON_LON WELLINGTON_WIND WELLINGTON_PRES DS824_LAT DS824_LON DS824_STAGE DS824_WIND DS824_PRES TD9636_LAT TD9636_LON TD9636_STAGE TD9636_WIND TD9636_PRES TD9635_LAT TD9635_LON TD9635_WIND TD9635_PRES TD9635_ROCI NEUMANN_LAT NEUMANN_LON NEUMANN_CLASS NEUMANN_WIND NEUMANN_PRES MLC_LAT MLC_LON MLC_CLASS MLC_WIND MLC_PRES USA_GUST BOM_GUST BOM_GUST_PER REUNION_GUST REUNION_GUST_PER USA_SEAHGT USA_SEARAD_NE USA_SEARAD_SE USA_SEARAD_SW USA_SEARAD_NW STORM_SPEED STORM_DIR
1991136N11238 1991 24 EP MM ANDRES 1991-05-16 06:00:00 TS 10.7000 -122.500 20 1010 hurdat_epa main 1904 1896 O_____________ hurdat_epa EP011991 10.7000 -122.500 TD 20 1010 -1 2 66
1991136N11238 1991 24 EP MM ANDRES 1991-05-16 09:00:00 TS 10.7500 -122.385 main 1888 1881 P_____________ EP011991 10.7500 -122.385 TD 22 1009 -1 2 63
1991136N11238 1991 24 EP MM ANDRES 1991-05-16 12:00:00 TS 10.8000 -122.300 25 1009 hurdat_epa main 1881 1881 O_____________ hurdat_epa EP011991 10.8000 -122.300 TD 25 1009 -1 2 48
1991136N11238 1991 24 EP MM ANDRES 1991-05-16 15:00:00 TS 10.8500 -122.270 main 1881 1872 P_____________ EP011991 10.8500 -122.270 TD 27 1008 -1 1 0
1991136N11238 1991 24 EP MM ANDRES 1991-05-16 18:00:00 TS 10.9000 -122.300 30 1008 hurdat_epa main 1872 1872 O_____________ hurdat_epa EP011991 10.9000 -122.300 TD 30 1008 -1 2 317
1991136N11238 1991 24 EP MM ANDRES 1991-05-16 21:00:00 TS 10.9650 -122.385 main 1872 1872 P_____________ EP011991 10.9650 -122.385 TD 32 1006 -1 2 297
1991136N11238 1991 24 EP MM ANDRES 1991-05-17 00:00:00 TS 11.0000 -122.500 35 1005 hurdat_epa main 1879 1879 O_____________ hurdat_epa EP011991 11.0000 -122.500 TS 35 1005 0 2 272
1991136N11238 1991 24 EP MM ANDRES 1991-05-17 03:00:00 TS 10.9725 -122.592 main 1887 1887 P_____________ EP011991 10.9725 -122.592 TS 37 1002 0 2 243
1991136N11238 1991 24 EP MM ANDRES 1991-05-17 06:00:00 TS 10.9000 -122.700 40 1000 hurdat_epa main 1902 1902 O_____________ hurdat_epa EP011991 10.9000 -122.700 TS 40 1000 0 3 237
1991136N11238 1991 24 EP MM ANDRES 1991-05-17 09:00:00 TS 10.8075 -122.850 main 1925 1925 P_____________ EP011991 10.8075 -122.850 TS 47 997 0 4 236
1991136N11238 1991 24 EP MM ANDRES 1991-05-17 12:00:00 TS 10.7000 -123.000 55 994 hurdat_epa main 1941 1941 O_____________ hurdat_epa EP011991 10.7000 -123.000 TS 55 994 0 3 230
1991136N11238 1991 24 EP MM ANDRES 1991-05-17 15:00:00 TS 10.6000 -123.100 main 1957 1957 P_____________ EP011991 10.6000 -123.100 TS 55 994 0 3 225
1991136N11238 1991 24 EP MM ANDRES 1991-05-17 18:00:00 TS 10.5000 -123.200 55 994 hurdat_epa main 1972 1972 O_____________ hurdat_epa EP011991 10.5000 -123.200 TS 55 994 0 3 231
1991136N11238 1991 24 EP MM ANDRES 1991-05-17 21:00:00 TS 10.3925 -123.365 main 1996 1996 P_____________ EP011991 10.3925 -123.365 TS 55 994 0 4 236
1991136N11238 1991 24 EP MM ANDRES 1991-05-18 00:00:00 TS 10.3000 -123.500 55 994 hurdat_epa main 2011 2011 O_____________ hurdat_epa EP011991 10.3000 -123.500 TS 55 994 0 2 227
1991136N11238 1991 24 EP MM ANDRES 1991-05-18 03:00:00 TS 10.2425 -123.530 main 2019 2019 P_____________ EP011991 10.2425 -123.530 TS 55 994 0 1 0
1991136N11238 1991 24 EP MM ANDRES 1991-05-18 06:00:00 TS 10.2000 -123.500 55 995 hurdat_epa main 2019 2019 O_____________ hurdat_epa EP011991 10.2000 -123.500 TS 55 995 0 1 149
1991136N11238 1991 24 EP MM ANDRES 1991-05-18 09:00:00 TS 10.1350 -123.465 main 2027 2020 P_____________ EP011991 10.1350 -123.465 TS 55 995 0 1 137
1991136N11238 1991 24 EP MM ANDRES 1991-05-18 12:00:00 TS 10.1000 -123.400 55 996 hurdat_epa main 2020 2013 O_____________ hurdat_epa EP011991 10.1000 -123.400 TS 55 996 0 2 90
1991136N11238 1991 24 EP MM ANDRES 1991-05-18 15:00:00 TS 10.1350 -123.308 main 2013 1997 P_____________ EP011991 10.1350 -123.308 TS 52 996 0 2 63
1991136N11238 1991 24 EP MM ANDRES 1991-05-18 18:00:00 TS 10.2000 -123.200 50 997 hurdat_epa main 1997 1989 O_____________ hurdat_epa EP011991 10.2000 -123.200 TS 50 997 0 2 60
1991136N11238 1991 24 EP MM ANDRES 1991-05-18 21:00:00 TS 10.2500 -123.108 main 1989 1974 P_____________ EP011991 10.2500 -123.107 TS 47 997 0 2 63
1991136N11238 1991 24 EP MM ANDRES 1991-05-19 00:00:00 TS 10.3000 -123.000 45 998 hurdat_epa main 1974 1966 O_____________ hurdat_epa EP011991 10.3000 -123.000 TS 45 998 0 3 68
1991136N11238 1991 24 EP MM ANDRES 1991-05-19 03:00:00 TS 10.3500 -122.858 main 1958 1943 P_____________ EP011991 10.3500 -122.858 TS 42 1000 0 3 71
1991136N11238 1991 24 EP MM ANDRES 1991-05-19 06:00:00 TS 10.4000 -122.700 40 1002 hurdat_epa main 1943 1936 O_____________ hurdat_epa EP011991 10.4000 -122.700 TS 40 1002 0 3 73
1991136N11238 1991 24 EP MM ANDRES 1991-05-19 09:00:00 TS 10.4425 -122.550 main 1929 1913 P_____________ EP011991 10.4425 -122.550 TS 37 1003 0 3 71
1991136N11238 1991 24 EP MM ANDRES 1991-05-19 12:00:00 TS 10.5000 -122.400 35 1005 hurdat_epa main 1913 1897 O_____________ hurdat_epa EP011991 10.5000 -122.400 TS 35 1005 0 3 62
1991136N11238 1991 24 EP MM ANDRES 1991-05-19 15:00:00 TS 10.5925 -122.257 main 1897 1874 P_____________ EP011991 10.5925 -122.257 TS 32 1006 -1 4 56
1991136N11238 1991 24 EP MM ANDRES 1991-05-19 18:00:00 TS 10.7000 -122.100 30 1007 hurdat_epa main 1874 1851 O_____________ hurdat_epa EP011991 10.7000 -122.100 TD 30 1007 -1 4 58
1991136N11238 1991 24 EP MM ANDRES 1991-05-19 21:00:00 TS 10.8025 -121.910 main 1851 1829 P_____________ EP011991 10.8025 -121.910 TD 27 1008 -1 4 63
1991136N11238 1991 24 EP MM ANDRES 1991-05-20 00:00:00 TS 10.9000 -121.700 25 1009 hurdat_epa main 1829 O_____________ hurdat_epa EP011991 10.9000 -121.700 TD 25 1009 -1 5 65

IBTrACS Databaseについて

本データベースは、米国NOAAが公開する1842年以降の世界の熱帯低気圧のベストトラックデータアーカイブInternational Best Track Archive for Climate Stewardship (IBTrACS)を、ウェブで閲覧しやすい形式に変換したものです。

最終更新日:2021-12-06